Time;durP1;ratioP1;P1;durP2;ratioP2;P2;SDS_P1;SDS_P2;PMS_P1;PMS_P2;Temp;Humidity;BMP_temperature;BMP_pressure;BME280_temperature;BME280_humidity;BME280_pressure;Samples;Min_cycle;Max_cycle;Signal;HPM_P1;HPM_P2
2022/06/10 00:00:47;;;;;;;;;1.00;1.00;;;;;19.99;50.92;101696.56;5057432;28;45974;-64
2022/06/10 00:03:15;;;;;;;;;7.67;4.33;;;;;20.04;51.06;101704.44;5057368;28;45687;-66
2022/06/10 00:05:43;;;;;;;;;5.33;5.00;;;;;20.00;51.00;101708.94;5056980;28;45401;-65
2022/06/10 00:08:12;;;;;;;;;5.00;5.00;;;;;20.00;51.26;101710.72;5053828;28;45260;-66
2022/06/10 00:10:45;;;;;;;;;7.33;5.00;;;;;19.99;51.70;101706.31;5057597;28;45278;-65
2022/06/10 00:13:16;;;;;;;;;4.67;4.67;;;;;19.90;51.88;101688.78;5056760;28;45738;-65
2022/06/10 00:15:42;;;;;;;;;5.00;4.00;;;;;19.94;51.44;101702.91;5050418;28;46341;-67
2022/06/10 00:18:09;;;;;;;;;5.33;4.00;;;;;19.90;51.71;101699.41;5063646;27;45523;-67
2022/06/10 00:20:34;;;;;;;;;3.67;3.67;;;;;19.90;52.07;101702.06;5056213;28;45448;-64
2022/06/10 00:23:00;;;;;;;;;6.33;4.33;;;;;19.92;51.83;101697.59;5062428;28;45414;-67
2022/06/10 00:25:27;;;;;;;;;7.67;5.33;;;;;19.92;51.89;101706.44;5064919;27;46206;-65
2022/06/10 00:27:54;;;;;;;;;6.33;3.00;;;;;19.90;51.90;101704.72;5059900;28;45472;-65
2022/06/10 00:30:23;;;;;;;;;4.67;4.00;;;;;19.90;51.99;101702.06;5063346;27;45444;-65
2022/06/10 00:32:49;;;;;;;;;5.00;5.00;;;;;19.84;52.10;101692.47;5056830;28;46529;-66
2022/06/10 00:35:21;;;;;;;;;7.33;4.67;;;;;19.81;52.03;101697.84;5055552;28;46329;-66
2022/06/10 00:37:47;;;;;;;;;6.00;4.67;;;;;19.78;51.87;101697.88;5048723;28;45811;-65
2022/06/10 00:40:20;;;;;;;;;7.00;5.67;;;;;19.81;52.07;101696.94;5055870;28;45512;-66
2022/06/10 00:42:46;;;;;;;;;6.67;5.00;;;;;19.78;52.15;101684.59;5050520;28;45466;-65
2022/06/10 00:45:49;;;;;;;;;5.67;5.00;;;;;19.86;52.19;101703.03;5055920;28;46565;-66
2022/06/10 00:48:32;;;;;;;;;6.33;6.33;;;;;19.82;51.88;101688.09;5053518;28;45450;-65
2022/06/10 00:51:03;;;;;;;;;6.00;5.00;;;;;19.82;52.26;101682.75;5058391;28;45473;-65
2022/06/10 00:53:34;;;;;;;;;6.00;4.67;;;;;19.90;51.78;101688.78;5058963;28;45487;-66
2022/06/10 00:56:06;;;;;;;;;4.33;4.33;;;;;19.87;52.15;101692.38;5058765;28;45326;-67
2022/06/10 00:59:08;;;;;;;;;4.33;4.00;;;;;19.84;52.10;101684.47;5045808;28;45461;-64
2022/06/10 01:01:34;;;;;;;;;6.67;4.00;;;;;19.80;51.84;101673.94;5048440;28;45204;-65
2022/06/10 01:04:01;;;;;;;;;6.33;4.67;;;;;19.82;52.21;101682.75;5058799;28;45390;-66
2022/06/10 01:06:27;;;;;;;;;4.67;4.67;;;;;19.84;51.84;101678.31;5059026;28;46233;-66
2022/06/10 01:08:55;;;;;;;;;5.00;3.67;;;;;19.86;52.07;101681.78;5058161;28;45272;-66
2022/06/10 01:12:21;;;;;;;;;6.00;6.00;;;;;19.74;52.77;101676.72;5043745;28;45465;-67
2022/06/10 01:14:56;;;;;;;;;5.00;5.00;;;;;19.69;52.80;101680.38;5002952;28;45360;-67
2022/06/10 01:17:55;;;;;;;;;4.67;4.67;;;;;19.66;53.03;101684.84;5016369;28;45362;-66
2022/06/10 01:20:44;;;;;;;;;4.67;4.67;;;;;19.60;52.83;101675.22;5038680;28;45450;-66
2022/06/10 01:23:25;;;;;;;;;7.33;5.00;;;;;19.62;52.90;101685.78;5058926;28;45383;-66
2022/06/10 01:26:05;;;;;;;;;5.33;5.00;;;;;19.58;53.02;101684.13;5058740;28;45398;-67
2022/06/10 01:28:57;;;;;;;;;4.67;3.33;;;;;19.49;53.44;101688.69;5058458;28;46067;-66
2022/06/10 01:31:38;;;;;;;;;5.33;5.00;;;;;19.47;53.40;101684.31;5057132;28;45256;-66
2022/06/10 01:34:35;;;;;;;;;3.33;3.33;;;;;19.52;53.06;101686.91;5058327;28;45496;-66
2022/06/10 01:37:12;;;;;;;;;2.33;2.33;;;;;19.49;53.08;101680.72;5058715;28;45203;-65
2022/06/10 01:39:47;;;;;;;;;4.00;4.00;;;;;19.48;53.23;101686.06;5057948;28;46223;-66
2022/06/10 01:42:28;;;;;;;;;5.00;4.00;;;;;19.44;53.40;101687.06;5058254;28;45281;-65
2022/06/10 01:45:25;;;;;;;;;7.00;5.00;;;;;19.44;53.38;101685.25;5058480;28;45471;-67
2022/06/10 01:47:57;;;;;;;;;6.00;6.00;;;;;19.39;53.52;101683.63;5055956;28;45248;-67
2022/06/10 01:50:30;;;;;;;;;6.00;6.00;;;;;19.31;54.00;101686.41;5057518;28;45591;-66
2022/06/10 01:53:16;;;;;;;;;7.67;5.00;;;;;19.23;54.25;101693.66;5058179;28;45516;-65
2022/06/10 01:55:49;;;;;;;;;8.00;6.67;;;;;19.23;53.99;101691.00;5045462;28;45255;-66
2022/06/10 01:58:17;;;;;;;;;5.67;4.67;;;;;19.21;54.34;101706.06;5047861;28;45560;-65
2022/06/10 02:00:47;;;;;;;;;5.33;4.00;;;;;19.19;54.45;101695.47;5053122;28;46854;-66
2022/06/10 02:03:30;;;;;;;;;4.00;4.00;;;;;19.13;54.24;101695.59;5058129;28;45305;-64
2022/06/10 02:06:00;;;;;;;;;4.00;4.00;;;;;19.06;54.76;101689.53;5057775;28;45293;-65
2022/06/10 02:08:41;;;;;;;;;4.00;4.00;;;;;19.02;54.96;101697.56;5058032;27;45417;-66
2022/06/10 02:11:13;;;;;;;;;5.33;5.00;;;;;18.99;55.01;101695.84;5056270;28;47599;-66
2022/06/10 02:13:57;;;;;;;;;5.67;5.67;;;;;18.97;55.19;101702.09;5057549;28;45396;-66
2022/06/10 02:16:47;;;;;;;;;6.33;5.00;;;;;18.99;55.26;101702.94;5057564;28;45483;-66
2022/06/10 02:19:31;;;;;;;;;6.00;4.00;;;;;18.99;55.20;101705.59;5052302;28;45353;-65
2022/06/10 02:22:10;;;;;;;;;4.33;4.33;;;;;19.00;55.14;101700.25;5049504;28;45453;-65
2022/06/10 02:24:43;;;;;;;;;6.00;6.00;;;;;18.97;55.40;101694.13;5052021;28;45382;-65
2022/06/10 02:27:28;;;;;;;;;6.00;6.00;;;;;18.90;55.90;101695.13;5043386;28;45414;-65
2022/06/10 02:30:08;;;;;;;;;5.33;5.33;;;;;18.84;55.67;101688.16;5057774;28;45487;-66
2022/06/10 02:32:36;;;;;;;;;5.33;5.33;;;;;18.76;55.86;101695.31;5057190;28;45368;-64
2022/06/10 02:35:10;;;;;;;;;6.67;5.00;;;;;18.79;55.52;101692.66;5048420;28;45353;-65
2022/06/10 02:37:42;;;;;;;;;4.67;4.00;;;;;18.70;55.93;101691.00;5052246;28;45310;-66
2022/06/10 02:40:26;;;;;;;;;4.67;4.67;;;;;18.76;55.78;101697.97;5057536;28;45420;-66
2022/06/10 02:43:07;;;;;;;;;5.67;4.00;;;;;18.79;55.81;101703.25;5057029;28;45438;-66
2022/06/10 02:45:49;;;;;;;;;3.00;3.00;;;;;18.70;55.55;101700.72;5057913;28;45500;-65
2022/06/10 02:48:38;;;;;;;;;7.67;5.33;;;;;18.77;55.68;101702.41;5057580;28;45155;-66
2022/06/10 02:51:04;;;;;;;;;4.00;4.00;;;;;18.78;55.38;101717.44;5057726;28;45422;-65
2022/06/10 02:53:30;;;;;;;;;6.00;5.00;;;;;18.81;55.17;101710.28;5044617;28;45424;-65
2022/06/10 02:55:56;;;;;;;;;5.00;4.00;;;;;18.75;55.00;101701.56;5057432;28;45501;-66
2022/06/10 03:01:20;;;;;;;;;3.67;3.67;;;;;18.77;54.91;101724.53;5057681;28;45436;-66
2022/06/10 03:04:07;;;;;;;;;7.00;5.00;;;;;18.75;54.70;101718.34;5056528;28;46225;-64
2022/06/10 03:06:44;;;;;;;;;6.00;5.00;;;;;18.77;54.20;101719.22;5057262;28;45354;-65
2022/06/10 03:09:19;;;;;;;;;5.00;4.33;;;;;18.72;54.89;101709.53;5055842;28;45739;-65
2022/06/10 03:11:54;;;;;;;;;6.00;6.00;;;;;18.74;54.35;101713.06;5056945;28;45517;-63
2022/06/10 03:14:47;;;;;;;;;6.00;6.00;;;;;18.72;54.75;101720.16;5056204;28;47703;-65
2022/06/10 03:17:25;;;;;;;;;5.67;4.00;;;;;18.74;54.44;101715.69;5056698;28;45467;-66
2022/06/10 03:20:19;;;;;;;;;3.33;3.33;;;;;18.75;54.56;101720.13;5056812;28;45819;-66
2022/06/10 03:23:05;;;;;;;;;3.00;3.00;;;;;18.72;54.09;101714.84;5056914;28;45326;-65
2022/06/10 03:25:53;;;;;;;;;6.00;5.00;;;;;18.74;54.42;101718.34;5053027;28;46188;-68
2022/06/10 03:28:51;;;;;;;;;3.67;3.67;;;;;18.81;54.28;101726.22;5048832;28;45475;-65
2022/06/10 03:31:38;;;;;;;;;5.33;4.00;;;;;18.74;54.07;101713.06;5028835;28;45360;-67
2022/06/10 03:34:18;;;;;;;;;6.00;4.00;;;;;18.76;54.29;101716.56;5054366;28;45447;-66
2022/06/10 03:36:46;;;;;;;;;4.00;4.00;;;;;18.77;53.97;101716.56;5056540;28;45445;-68
2022/06/10 03:39:18;;;;;;;;;3.00;3.00;;;;;18.91;54.04;101729.63;5056584;28;46053;-66
2022/06/10 03:42:05;;;;;;;;;6.00;4.33;;;;;18.87;54.08;101721.75;5055246;28;45528;-65
2022/06/10 03:44:32;;;;;;;;;5.33;5.33;;;;;18.78;54.17;101715.66;5056564;28;45557;-65
2022/06/10 03:46:58;;;;;;;;;4.67;4.33;;;;;18.83;54.15;101728.88;5054864;28;47432;-66
2022/06/10 03:49:30;;;;;;;;;3.67;3.00;;;;;18.85;54.32;101730.59;5056091;28;45764;-67
2022/06/10 03:51:58;;;;;;;;;4.67;3.33;;;;;18.82;54.31;101730.66;5055377;28;45481;-65
2022/06/10 03:54:25;;;;;;;;;4.00;4.00;;;;;18.75;54.36;101722.78;5056218;28;45492;-66
2022/06/10 03:56:52;;;;;;;;;4.00;4.00;;;;;18.81;54.36;101725.34;5055818;28;46192;-65
2022/06/10 03:59:19;;;;;;;;;7.00;5.00;;;;;18.80;54.35;101728.91;5055923;28;45370;-65
2022/06/10 04:01:45;;;;;;;;;4.00;4.00;;;;;18.69;54.60;101705.16;5055860;28;45473;-65
2022/06/10 04:04:11;;;;;;;;;6.00;4.33;;;;;18.70;54.56;101727.25;5056234;28;45503;-65
2022/06/10 04:06:36;;;;;;;;;6.00;4.33;;;;;18.67;55.07;101729.97;5055886;28;46120;-66
2022/06/10 04:09:02;;;;;;;;;4.00;4.00;;;;;18.67;54.78;101732.63;5056129;28;45457;-66
2022/06/10 04:11:28;;;;;;;;;5.00;5.00;;;;;18.67;54.84;101740.59;5056054;28;45457;-65
2022/06/10 04:13:53;;;;;;;;;3.33;3.33;;;;;18.62;55.20;101740.66;5056768;28;45407;-65
2022/06/10 04:16:28;;;;;;;;;6.67;5.33;;;;;18.50;55.22;101722.28;5056163;28;45618;-66
2022/06/10 04:18:54;;;;;;;;;6.00;4.67;;;;;18.59;55.29;101741.59;5054794;28;45552;-66
2022/06/10 04:21:20;;;;;;;;;6.33;4.33;;;;;18.63;55.14;101748.59;5055950;28;45546;-67
2022/06/10 04:23:45;;;;;;;;;4.00;4.00;;;;;18.72;55.32;101747.59;5056316;28;45511;-66
2022/06/10 04:26:11;;;;;;;;;5.33;5.33;;;;;18.81;55.23;101754.53;5047091;28;46074;-66
2022/06/10 04:28:36;;;;;;;;;4.00;3.00;;;;;18.87;54.68;101751.81;5049337;28;45404;-66
2022/06/10 04:31:02;;;;;;;;;5.00;5.00;;;;;18.90;55.10;101745.56;5056008;28;45393;-66
2022/06/10 04:33:27;;;;;;;;;3.00;3.00;;;;;18.95;54.90;101754.31;5056270;28;45414;-67
2022/06/10 04:35:53;;;;;;;;;3.00;3.00;;;;;19.00;54.48;101753.34;5055686;28;46948;-66
2022/06/10 04:38:22;;;;;;;;;5.67;5.00;;;;;19.00;54.61;101748.03;5054226;28;45769;-66
2022/06/10 04:40:48;;;;;;;;;4.00;4.00;;;;;19.04;54.82;101759.47;5055461;28;45478;-65
2022/06/10 04:43:15;;;;;;;;;5.00;4.00;;;;;18.95;55.03;101749.88;5055873;28;45315;-65
2022/06/10 04:45:48;;;;;;;;;5.00;3.33;;;;;19.00;54.75;101758.66;5058685;28;45508;-65
2022/06/10 04:48:14;;;;;;;;;4.00;4.00;;;;;18.97;54.87;101761.34;5058734;28;45536;-64
2022/06/10 04:50:41;;;;;;;;;8.33;4.67;;;;;18.99;54.83;101767.53;5057773;28;45516;-66
2022/06/10 04:53:07;;;;;;;;;5.00;4.00;;;;;18.98;55.05;101764.88;5059551;28;45287;-65
2022/06/10 04:55:34;;;;;;;;;4.00;4.00;;;;;19.01;54.85;101759.56;5058777;28;45396;-64
2022/06/10 04:58:00;;;;;;;;;5.00;4.00;;;;;18.99;54.93;101753.38;5058896;28;45327;-66
2022/06/10 05:00:42;;;;;;;;;5.00;4.67;;;;;18.95;55.00;101749.00;5058861;28;45376;-67
2022/06/10 05:03:09;;;;;;;;;5.67;4.33;;;;;18.94;55.18;101742.84;5059305;28;45495;-66
2022/06/10 05:05:36;;;;;;;;;4.67;4.67;;;;;19.07;55.08;101757.63;5058471;28;45597;-67
2022/06/10 05:08:02;;;;;;;;;5.00;5.00;;;;;19.15;54.79;101748.66;5058643;28;45401;-67
2022/06/10 05:10:28;;;;;;;;;5.33;4.00;;;;;19.27;54.40;101752.00;5058813;28;45370;-67
2022/06/10 05:12:54;;;;;;;;;3.67;3.67;;;;;19.40;55.16;101757.94;5058717;28;45273;-68
2022/06/10 05:15:21;;;;;;;;;5.67;3.00;;;;;19.44;54.46;101743.72;5058495;28;46109;-67
2022/06/10 05:17:48;;;;;;;;;4.00;3.33;;;;;19.58;54.20;101747.91;5058711;28;45373;-66
2022/06/10 05:20:28;;;;;;;;;3.67;3.67;;;;;19.65;54.65;101736.25;5058779;28;45410;-67
2022/06/10 05:22:54;;;;;;;;;6.00;6.00;;;;;19.80;53.96;101746.59;5057690;28;45476;-69
2022/06/10 05:25:20;;;;;;;;;7.33;5.67;;;;;19.80;53.25;101735.94;5056653;28;45492;-66
2022/06/10 05:27:55;;;;;;;;;3.67;3.67;;;;;19.93;53.23;101749.84;5044395;28;45505;-67
2022/06/10 05:30:23;;;;;;;;;6.00;4.00;;;;;19.98;53.47;101747.09;5058491;28;45322;-67
2022/06/10 05:32:49;;;;;;;;;5.00;5.00;;;;;20.03;53.23;101755.88;5058387;28;45422;-67
2022/06/10 05:35:17;;;;;;;;;5.00;4.00;;;;;19.98;53.36;101750.66;5058090;28;45432;-66
2022/06/10 05:37:42;;;;;;;;;5.00;4.00;;;;;20.03;53.37;101751.44;5056890;28;45357;-65
2022/06/10 05:40:16;;;;;;;;;4.67;4.67;;;;;20.09;53.53;101753.06;5058231;28;45430;-66
2022/06/10 05:42:43;;;;;;;;;5.67;4.00;;;;;20.17;52.94;101751.16;5057101;28;45554;-66
2022/06/10 05:45:11;;;;;;;;;4.00;4.00;;;;;20.15;52.89;101744.97;5057879;28;45290;-65
2022/06/10 05:47:37;;;;;;;;;6.00;4.00;;;;;20.27;52.78;101747.38;5056507;28;45445;-66
2022/06/10 05:50:09;;;;;;;;;8.67;5.00;;;;;20.37;52.53;101757.81;5058318;28;45219;-66
2022/06/10 05:52:35;;;;;;;;;6.00;4.00;;;;;20.48;52.29;101763.75;5057963;28;45460;-65
2022/06/10 05:55:06;;;;;;;;;4.00;4.00;;;;;20.52;52.34;101762.75;5057442;28;45999;-66
2022/06/10 05:57:31;;;;;;;;;3.00;3.00;;;;;20.47;52.28;101743.38;5057558;28;45301;-65
2022/06/10 05:59:58;;;;;;;;;5.67;5.00;;;;;20.69;52.06;101767.72;5056543;28;45195;-66
2022/06/10 06:02:24;;;;;;;;;3.33;3.33;;;;;20.74;52.23;101788.00;5056709;28;45588;-68
2022/06/10 06:04:51;;;;;;;;;4.33;4.33;;;;;20.69;51.90;101789.00;5057493;28;45999;-66
2022/06/10 06:07:26;;;;;;;;;6.67;5.00;;;;;20.74;51.95;101790.69;5053055;28;45500;-65
2022/06/10 06:09:52;;;;;;;;;5.33;5.00;;;;;20.84;51.71;101785.13;5056239;28;45442;-66
2022/06/10 06:12:19;;;;;;;;;6.00;4.00;;;;;20.91;51.76;101789.41;5057926;28;45456;-66
2022/06/10 06:14:45;;;;;;;;;4.00;4.00;;;;;20.85;51.98;101789.53;5056158;28;47579;-66
2022/06/10 06:17:13;;;;;;;;;4.00;4.00;;;;;20.74;52.13;101787.16;5057952;28;45954;-66
2022/06/10 06:19:39;;;;;;;;;2.67;2.67;;;;;20.78;51.87;101782.59;5057543;28;45363;-66
2022/06/10 06:22:05;;;;;;;;;4.00;4.00;;;;;20.62;52.53;101777.66;5056339;28;45324;-64
2022/06/10 06:24:30;;;;;;;;;4.33;4.33;;;;;20.75;52.18;101792.41;5057306;28;45437;-66
2022/06/10 06:26:56;;;;;;;;;3.67;3.67;;;;;20.89;52.11;101796.53;5043035;28;45435;-65
2022/06/10 06:29:25;;;;;;;;;5.00;4.00;;;;;20.91;52.14;101787.59;5057391;28;45315;-65
2022/06/10 06:31:53;;;;;;;;;4.00;4.00;;;;;21.07;51.82;101797.88;5057572;28;45271;-66
2022/06/10 06:34:22;;;;;;;;;5.33;3.67;;;;;21.13;51.54;101797.72;5057091;28;46369;-64
2022/06/10 06:36:50;;;;;;;;;5.67;5.67;;;;;21.21;51.30;101790.41;5057499;28;45298;-65
2022/06/10 06:39:18;;;;;;;;;8.00;5.00;;;;;21.35;51.20;101798.91;5057518;28;45257;-66
2022/06/10 06:41:45;;;;;;;;;4.00;4.00;;;;;21.39;50.93;101791.72;5057698;28;45441;-66
2022/06/10 06:44:11;;;;;;;;;3.00;3.00;;;;;21.52;50.60;101802.97;5057040;28;45446;-66
2022/06/10 06:46:39;;;;;;;;;2.00;2.00;;;;;21.56;50.30;101789.50;5057419;28;45465;-66
2022/06/10 06:49:08;;;;;;;;;5.00;3.00;;;;;21.44;50.50;101799.63;5057479;28;45499;-66
2022/06/10 06:51:35;;;;;;;;;3.00;3.00;;;;;21.42;50.83;101794.34;5057557;28;45287;-66
2022/06/10 06:54:01;;;;;;;;;2.67;2.67;;;;;21.33;50.84;101773.22;5056801;28;45337;-66
2022/06/10 06:56:28;;;;;;;;;7.00;3.00;;;;;21.45;50.63;101791.63;5055686;28;45303;-66
2022/06/10 06:58:53;;;;;;;;;4.67;4.00;;;;;21.54;50.51;101795.78;5057203;28;45411;-65
2022/06/10 07:01:19;;;;;;;;;6.00;3.33;;;;;21.52;50.43;101790.53;5056927;28;45440;-67
2022/06/10 07:03:44;;;;;;;;;2.00;2.00;;;;;21.56;50.18;101796.63;5055863;28;45411;-65
2022/06/10 07:06:11;;;;;;;;;3.00;3.00;;;;;21.68;50.03;101795.44;5056681;28;45477;-64
2022/06/10 07:08:37;;;;;;;;;4.00;3.00;;;;;21.73;50.01;101794.38;5056338;28;45473;-65
2022/06/10 07:11:05;;;;;;;;;4.00;3.67;;;;;21.87;49.88;101787.78;5056958;28;45465;-65
2022/06/10 07:13:31;;;;;;;;;3.00;3.00;;;;;21.93;49.64;101796.50;5042846;28;45517;-65
2022/06/10 07:15:58;;;;;;;;;3.00;3.00;;;;;21.92;49.38;101786.72;5050003;28;45433;-65
2022/06/10 07:18:24;;;;;;;;;4.00;2.00;;;;;21.95;48.80;101788.47;5060228;28;45510;-65
2022/06/10 07:20:50;;;;;;;;;3.00;2.00;;;;;22.11;48.67;101797.75;5062812;28;45505;-65
2022/06/10 07:23:17;;;;;;;;;3.00;3.00;;;;;22.19;48.45;101798.41;5060737;27;46081;-65
2022/06/10 07:25:43;;;;;;;;;5.00;3.00;;;;;22.11;48.65;101791.53;5066136;27;45488;-64
2022/06/10 07:28:11;;;;;;;;;6.00;3.00;;;;;21.93;48.61;101791.16;5048090;28;45452;-66
2022/06/10 07:30:38;;;;;;;;;2.67;2.67;;;;;21.86;48.90;101789.59;5056824;28;45374;-65
2022/06/10 07:36:26;;;;;;;;;6.00;2.00;;;;;21.78;48.08;101789.81;5043718;28;45401;-67
2022/06/10 07:38:53;;;;;;;;;3.33;2.00;;;;;21.76;48.43;101804.09;5065505;28;45436;-65
2022/06/10 07:44:03;;;;;;;;;5.00;3.33;;;;;21.86;48.09;101813.59;5058388;28;45882;-65
2022/06/10 07:46:29;;;;;;;;;4.33;3.33;;;;;21.91;48.04;101817.00;5055926;28;45564;-67
2022/06/10 07:48:54;;;;;;;;;2.33;2.33;;;;;22.05;48.16;101816.63;5067620;27;45405;-66
2022/06/10 07:51:20;;;;;;;;;4.67;2.67;;;;;22.28;47.72;101818.66;5048964;28;45494;-65
2022/06/10 07:53:46;;;;;;;;;4.00;4.00;;;;;22.29;47.63;101804.38;5039892;28;46685;-65
2022/06/10 07:56:13;;;;;;;;;3.00;2.00;;;;;22.34;47.76;101804.25;5045611;28;45461;-65
2022/06/10 07:58:39;;;;;;;;;2.00;2.00;;;;;22.40;47.67;101801.38;5058584;28;45517;-66
2022/06/10 08:01:05;;;;;;;;;3.67;3.00;;;;;22.22;47.20;101786.81;5040082;28;45495;-65
2022/06/10 08:03:31;;;;;;;;;2.00;2.00;;;;;22.38;47.63;101797.91;5048373;28;45425;-65
2022/06/10 08:05:58;;;;;;;;;3.00;3.00;;;;;22.41;47.90;101787.97;5045677;28;45449;-66
2022/06/10 08:08:24;;;;;;;;;3.00;3.00;;;;;22.71;47.35;101805.75;5051329;28;45319;-65
2022/06/10 08:10:51;;;;;;;;;4.33;4.33;;;;;22.88;47.17;101802.56;5037983;28;45180;-66
2022/06/10 08:13:17;;;;;;;;;4.67;3.00;;;;;23.03;47.01;101802.09;5039978;28;46551;-65
2022/06/10 08:15:44;;;;;;;;;3.00;3.00;;;;;23.05;46.60;101795.75;5048332;28;45504;-66
2022/06/10 08:18:22;;;;;;;;;3.67;2.67;;;;;22.98;46.27;101794.22;5059120;27;45567;-65
2022/06/10 08:23:32;;;;;;;;;3.00;3.00;;;;;22.81;46.06;101792.06;5060515;28;45832;-64
2022/06/10 08:26:00;;;;;;;;;3.33;2.00;;;;;22.68;45.77;101793.38;5041724;28;45486;-65
2022/06/10 08:28:27;;;;;;;;;2.33;2.00;;;;;22.75;46.35;101792.25;5057968;28;45596;-65
2022/06/10 08:30:52;;;;;;;;;5.00;2.00;;;;;22.75;46.37;101802.94;5049764;28;45791;-65
2022/06/10 08:33:18;;;;;;;;;2.00;2.00;;;;;22.86;45.85;101805.28;5040076;28;45529;-65
2022/06/10 08:35:45;;;;;;;;;3.00;1.67;;;;;22.86;45.40;101792.78;5060289;28;45927;-65
2022/06/10 08:38:13;;;;;;;;;2.67;2.00;;;;;22.82;45.68;101787.59;5063113;28;45525;-66
2022/06/10 08:40:57;;;;;;;;;1.00;1.00;;;;;22.93;45.53;101793.47;5067498;28;45494;-65
2022/06/10 08:43:47;;;;;;;;;3.67;2.00;;;;;22.89;45.61;101789.13;5063930;28;45311;-65
2022/06/10 08:46:34;;;;;;;;;1.67;1.67;;;;;22.82;45.50;101780.44;5063530;27;45295;-65
2022/06/10 08:49:12;;;;;;;;;2.00;2.00;;;;;22.90;45.70;101773.97;5067834;27;46551;-66
2022/06/10 08:52:15;;;;;;;;;2.33;2.00;;;;;23.01;45.41;101783.41;5063263;28;45615;-65
2022/06/10 08:54:55;;;;;;;;;1.67;1.33;;;;;23.08;44.99;101784.09;5063673;28;45700;-66
2022/06/10 08:57:32;;;;;;;;;2.00;2.00;;;;;23.03;43.63;101759.34;5066549;28;45470;-66
2022/06/10 09:00:00;;;;;;;;;3.33;2.00;;;;;23.10;44.64;101790.25;5061834;27;45434;-68
2022/06/10 09:02:38;;;;;;;;;2.00;1.00;;;;;23.12;43.97;101791.09;5055856;28;46137;-68
2022/06/10 09:05:13;;;;;;;;;3.00;2.00;;;;;23.07;43.30;101787.72;5054664;28;46224;-68
2022/06/10 09:07:53;;;;;;;;;1.33;1.33;;;;;23.22;43.39;101795.19;5061823;27;45527;-66
2022/06/10 09:10:30;;;;;;;;;0.00;0.00;;;;;23.19;42.85;101792.63;5070488;28;45402;-67
2022/06/10 09:13:21;;;;;;;;;3.00;1.00;;;;;23.34;44.25;101791.22;5072446;27;45844;-66
2022/06/10 09:15:54;;;;;;;;;4.00;1.00;;;;;23.47;41.89;101786.34;5073059;27;45378;-65
2022/06/10 09:18:34;;;;;;;;;3.00;1.00;;;;;23.40;42.14;101782.13;5066532;27;45567;-67
2022/06/10 09:21:11;;;;;;;;;0.33;0.00;;;;;23.35;41.72;101766.25;5038438;28;45516;-66
2022/06/10 09:23:46;;;;;;;;;2.67;0.00;;;;;23.41;42.41;101779.38;5065505;28;45725;-64
2022/06/10 09:26:22;;;;;;;;;2.33;1.00;;;;;23.36;42.22;101783.16;5056516;27;46731;-65
2022/06/10 09:28:49;;;;;;;;;1.33;1.33;;;;;23.38;43.53;101776.84;5054202;28;45409;-65
2022/06/10 09:31:21;;;;;;;;;3.00;2.00;;;;;23.48;43.90;101777.38;5054756;28;45512;-66
2022/06/10 09:33:53;;;;;;;;;2.00;2.00;;;;;23.53;43.85;101769.19;5050724;28;45607;-68
2022/06/10 09:36:39;;;;;;;;;2.00;2.00;;;;;23.62;43.94;101775.06;5055257;28;45477;-68
2022/06/10 09:43:07;;;;;;;;;1.00;1.00;;;;;23.56;42.32;101769.06;5075878;28;45342;-65
2022/06/10 09:46:09;;;;;;;;;1.33;1.33;;;;;23.46;43.92;101784.56;5045132;28;45523;-69
2022/06/10 09:48:59;;;;;;;;;0.67;0.67;;;;;23.48;42.58;101782.72;5048127;28;45949;-68
2022/06/10 09:51:34;;;;;;;;;0.00;0.00;;;;;23.42;42.61;101783.81;5077841;27;45349;-65
2022/06/10 09:54:09;;;;;;;;;1.00;1.00;;;;;23.48;42.61;101788.06;5076910;27;45409;-66
2022/06/10 09:57:14;;;;;;;;;2.00;2.00;;;;;23.58;42.45;101793.97;5076699;27;45529;-66
2022/06/10 09:59:45;;;;;;;;;2.00;1.00;;;;;23.71;42.78;101781.91;5060074;27;45441;-64
2022/06/10 10:02:37;;;;;;;;;2.67;2.00;;;;;23.83;42.33;101783.28;5076619;27;45544;-66
2022/06/10 10:05:21;;;;;;;;;2.00;2.00;;;;;23.80;42.51;101780.72;5076183;28;45468;-65
2022/06/10 10:07:51;;;;;;;;;2.67;1.33;;;;;23.71;42.63;101789.94;5075628;27;45424;-66
2022/06/10 10:10:23;;;;;;;;;2.67;2.67;;;;;23.82;42.34;101786.88;5077033;28;46345;-66
2022/06/10 10:13:03;;;;;;;;;1.33;1.00;;;;;23.80;42.74;101788.72;5076515;27;45506;-66
2022/06/10 10:15:49;;;;;;;;;3.67;2.00;;;;;23.85;42.39;101789.47;5077333;27;45345;-67
2022/06/10 10:18:32;;;;;;;;;3.33;1.00;;;;;23.83;42.16;101776.13;5075683;27;45285;-65
2022/06/10 10:21:14;;;;;;;;;5.00;3.00;;;;;24.00;42.10;101783.53;5077405;27;45467;-65
2022/06/10 10:23:48;;;;;;;;;1.67;1.67;;;;;24.18;42.19;101781.97;5078054;28;45470;-66
2022/06/10 10:26:20;;;;;;;;;3.00;1.00;;;;;24.19;42.04;101778.34;5058791;27;45559;-66
2022/06/10 10:28:48;;;;;;;;;3.00;3.00;;;;;24.32;41.70;101784.09;5054419;28;45481;-66
2022/06/10 10:31:23;;;;;;;;;4.00;2.00;;;;;24.38;42.01;101767.81;5057137;28;45362;-67
2022/06/10 10:33:50;;;;;;;;;5.00;3.00;;;;;24.49;41.89;101770.09;5057576;28;45538;-68
2022/06/10 10:36:31;;;;;;;;;3.00;3.00;;;;;24.43;41.75;101778.31;5057992;28;45677;-66
2022/06/10 10:39:18;;;;;;;;;2.00;2.00;;;;;24.42;42.32;101779.28;5057584;28;45493;-65
2022/06/10 10:41:48;;;;;;;;;2.33;2.33;;;;;24.40;42.57;101784.69;5050093;28;47826;-67
2022/06/10 10:44:34;;;;;;;;;2.00;2.00;;;;;24.54;42.12;101781.50;5045438;28;45539;-69
2022/06/10 10:47:09;;;;;;;;;2.00;2.00;;;;;24.60;41.76;101778.56;5050930;28;45257;-67
2022/06/10 10:49:42;;;;;;;;;2.00;2.00;;;;;24.76;41.62;101777.00;5056687;28;45565;-64
2022/06/10 10:52:21;;;;;;;;;1.50;1.00;;;;;24.80;42.15;101779.56;5056915;28;45353;-67
2022/06/10 10:54:52;;;;;;;;;1.50;1.50;;;;;24.75;42.31;101764.56;5053511;28;45559;-64
2022/06/10 10:57:26;;;;;;;;;2.00;2.00;;;;;24.83;42.19;101774.94;5074736;27;45491;-64
2022/06/10 11:00:06;;;;;;;;;2.25;1.75;;;;;24.90;42.49;101772.88;5062183;28;45561;-66
2022/06/10 11:02:40;;;;;;;;;5.00;3.00;;;;;24.97;42.17;101769.00;5054557;28;45553;-64
2022/06/10 11:05:25;;;;;;;;;3.25;1.50;;;;;24.99;42.64;101777.88;5059982;28;45646;-66
2022/06/10 11:08:12;;;;;;;;;1.75;1.75;;;;;25.05;42.59;101779.41;5057305;28;45595;-64
2022/06/10 11:10:52;;;;;;;;;3.00;3.00;;;;;25.00;42.37;101773.38;5050464;28;45367;-64
2022/06/10 11:13:47;;;;;;;;;2.33;2.33;;;;;25.04;42.72;101775.00;5056390;28;47460;-63
2022/06/10 11:16:16;;;;;;;;;4.00;2.33;;;;;24.99;42.75;101769.81;5059180;28;45357;-67
2022/06/10 11:18:43;;;;;;;;;4.25;2.00;;;;;25.11;42.28;101777.34;5059136;28;45401;-65
2022/06/10 11:21:08;;;;;;;;;2.00;2.00;;;;;25.25;41.95;101786.63;5059902;27;46460;-65
2022/06/10 11:23:34;;;;;;;;;2.50;2.00;;;;;25.09;41.71;101765.81;5055900;28;46048;-63
2022/06/10 11:26:05;;;;;;;;;2.33;2.33;;;;;25.25;41.96;101768.75;5051051;27;46515;-67
2022/06/10 11:28:37;;;;;;;;;3.00;1.00;;;;;25.35;41.65;101775.44;5055755;28;45474;-66
2022/06/10 11:31:19;;;;;;;;;2.00;2.00;;;;;25.35;41.70;101759.34;5051400;28;45524;-66
2022/06/10 11:33:48;;;;;;;;;2.00;2.00;;;;;25.54;41.34;101780.00;5068909;28;47254;-66
2022/06/10 11:36:41;;;;;;;;;3.75;2.00;;;;;25.46;41.20;101750.84;5053702;28;45506;-67
2022/06/10 11:39:17;;;;;;;;;2.00;2.00;;;;;25.55;41.20;101776.38;5037983;28;45844;-66
2022/06/10 11:42:17;;;;;;;;;4.50;4.00;;;;;25.53;41.29;101783.63;5054697;28;45490;-65
2022/06/10 11:44:54;;;;;;;;;4.75;4.00;;;;;25.42;41.59;101768.00;5050316;28;45569;-64
2022/06/10 11:47:33;;;;;;;;;3.00;3.00;;;;;25.26;41.85;101743.66;5053341;28;45584;-66
2022/06/10 11:50:06;;;;;;;;;5.00;3.00;;;;;25.53;41.63;101772.88;5053084;27;45390;-64
2022/06/10 11:52:53;;;;;;;;;4.00;3.00;;;;;25.51;41.05;101751.50;5052715;28;45524;-65
2022/06/10 11:55:22;;;;;;;;;3.75;3.25;;;;;25.59;41.59;101761.91;5056640;28;46895;-66
2022/06/10 12:00:55;;;;;;;;;3.00;2.25;;;;;25.70;40.96;101767.66;5059257;28;45331;-66
2022/06/10 12:03:35;;;;;;;;;5.50;3.00;;;;;25.66;41.21;101746.41;5059104;28;45484;-66
2022/06/10 12:06:15;;;;;;;;;6.25;6.00;;;;;25.51;41.55;101740.78;5056987;28;46468;-66
2022/06/10 12:08:44;;;;;;;;;5.00;5.00;;;;;25.58;40.99;101761.03;5066111;28;45458;-66
2022/06/10 12:11:24;;;;;;;;;3.00;3.00;;;;;25.62;41.37;101759.06;5057036;27;45968;-67